createdAt,value
2016-10-12T00:00:11.783Z,73.77
2016-10-12T00:01:11.798Z,73.77
2016-10-12T00:02:11.815Z,74.06
2016-10-12T00:03:11.850Z,74.06
2016-10-12T00:04:11.861Z,73.87
2016-10-12T00:05:11.870Z,73.77
2016-10-12T00:06:11.883Z,73.58
2016-10-12T00:07:11.901Z,73.39
2016-10-12T00:08:11.929Z,73.49
2016-10-12T00:09:11.935Z,72.97
2016-10-12T00:10:11.963Z,73.17
2016-10-12T00:11:11.971Z,73.74
2016-10-12T00:12:11.993Z,73.74
2016-10-12T00:13:12.005Z,73.93
2016-10-12T00:14:12.032Z,74.12
2016-10-12T00:15:12.041Z,73.87
2016-10-12T00:16:12.058Z,73.45
2016-10-12T00:17:12.072Z,73.74
2016-10-12T00:18:12.093Z,73.45
2016-10-12T00:19:12.108Z,74.31
2016-10-12T00:20:12.135Z,73.74
2016-10-12T00:21:12.141Z,73.55
2016-10-12T00:22:12.156Z,73.65
2016-10-12T00:23:12.174Z,74.16
2016-10-12T00:24:12.195Z,73.45
2016-10-12T00:25:12.210Z,74.25
2016-10-12T00:26:12.225Z,74.06
2016-10-12T00:27:12.247Z,73.83
2016-10-12T00:28:12.263Z,73.45
2016-10-12T00:29:12.277Z,73.74
2016-10-12T00:30:12.309Z,73.74
2016-10-12T00:31:12.315Z,73.93
2016-10-12T00:32:12.653Z,73.93
2016-10-12T00:33:12.353Z,74.21
2016-10-12T00:34:12.374Z,73.74
2016-10-12T00:35:12.385Z,74.02
2016-10-12T00:36:12.396Z,73.74
2016-10-12T00:37:12.419Z,73.45
2016-10-12T00:38:12.442Z,73.93
2016-10-12T00:39:12.448Z,73.83
2016-10-12T00:40:12.466Z,74.02
2016-10-12T00:41:12.480Z,74.02
2016-10-12T00:42:12.500Z,74.02
2016-10-12T00:43:12.516Z,73.45
2016-10-12T00:44:12.546Z,73.83
2016-10-12T00:45:12.553Z,73.74
2016-10-12T00:46:12.569Z,73.36
2016-10-12T00:47:12.584Z,73.74
2016-10-12T00:48:12.602Z,73.74
2016-10-12T00:49:12.619Z,73.83
2016-10-12T00:50:12.634Z,74.02
2016-10-12T00:51:12.659Z,73.93
2016-10-12T00:52:12.677Z,73.74
2016-10-12T00:53:12.688Z,74.02
2016-10-12T00:54:12.712Z,73.55
2016-10-12T00:55:12.721Z,74.02
2016-10-12T00:56:12.739Z,73.74
2016-10-12T00:57:12.754Z,73.74
2016-10-12T00:58:12.773Z,73.74
2016-10-12T00:59:12.789Z,73.74
2016-10-12T01:00:12.808Z,73.26
2016-10-12T01:01:12.824Z,73.74
2016-10-12T01:02:12.838Z,73.74
2016-10-12T01:03:12.857Z,73.93
2016-10-12T01:04:12.876Z,74.02
2016-10-12T01:05:12.888Z,73.45
2016-10-12T01:06:12.917Z,73.55
2016-10-12T01:07:12.924Z,73.74
2016-10-12T01:08:12.954Z,74.02
2016-10-12T01:09:12.959Z,74.02
2016-10-12T01:10:12.986Z,73.74
2016-10-12T01:11:12.995Z,73.55
2016-10-12T01:12:13.011Z,73.55
2016-10-12T01:13:13.029Z,73.45
2016-10-12T01:14:13.047Z,73.26
2016-10-12T01:15:13.064Z,73.83
2016-10-12T01:16:13.083Z,73.65
2016-10-12T01:17:13.106Z,73.74
2016-10-12T01:18:13.112Z,73.83
2016-10-12T01:19:13.129Z,73.93
2016-10-12T01:20:13.151Z,73.83
2016-10-12T01:21:13.162Z,73.74
2016-10-12T01:22:13.190Z,73.93
2016-10-12T01:23:13.196Z,74.02
2016-10-12T01:24:13.216Z,73.93
2016-10-12T01:25:13.230Z,73.83
2016-10-12T01:26:13.253Z,73.93
2016-10-12T01:27:13.265Z,73.36
2016-10-12T01:28:13.283Z,73.36
2016-10-12T01:29:13.296Z,73.65
2016-10-12T01:30:13.325Z,73.26
2016-10-12T01:31:13.338Z,73.45
2016-10-12T01:32:13.349Z,73.83
2016-10-12T01:33:13.365Z,73.83
2016-10-12T01:34:13.706Z,73.83
2016-10-12T01:35:13.400Z,73.65
2016-10-12T01:36:13.423Z,73.74
2016-10-12T01:37:13.434Z,73.26
2016-10-12T01:38:13.450Z,73.74
2016-10-12T01:39:13.469Z,73.55
2016-10-12T01:40:13.484Z,73.26
2016-10-12T01:41:13.502Z,73.36
2016-10-12T01:42:13.520Z,73.26
2016-10-12T01:43:13.535Z,73.55
2016-10-12T01:44:13.555Z,73.93
2016-10-12T01:45:13.577Z,73.74
2016-10-12T01:46:13.590Z,73.74
2016-10-12T01:47:13.604Z,73.65
2016-10-12T01:48:13.623Z,73.74
2016-10-12T01:49:13.637Z,73.83
2016-10-12T01:50:13.654Z,73.74
2016-10-12T01:51:13.673Z,73.74
2016-10-12T01:52:13.698Z,73.74
2016-10-12T01:53:13.706Z,73.55
2016-10-12T01:54:13.721Z,73.74
2016-10-12T01:55:13.739Z,73.65
2016-10-12T01:56:13.755Z,73.74
2016-10-12T01:57:13.774Z,74.12
2016-10-12T01:58:13.798Z,73.83
2016-10-12T01:59:13.804Z,73.65
2016-10-12T02:00:13.821Z,73.55
2016-10-12T02:01:13.840Z,73.55
2016-10-12T02:02:13.870Z,73.65
2016-10-12T02:03:13.873Z,73.74
2016-10-12T02:04:13.890Z,73.26
2016-10-12T02:05:13.908Z,73.55
2016-10-12T02:06:13.925Z,73.74
2016-10-12T02:07:13.939Z,73.65
2016-10-12T02:08:14.392Z,73.45
2016-10-12T02:09:13.974Z,73.74
2016-10-12T02:10:13.989Z,73.74
2016-10-12T02:11:14.006Z,73.74
2016-10-12T02:12:14.025Z,73.93
2016-10-12T02:13:14.040Z,73.74
2016-10-12T02:14:14.056Z,73.93
2016-10-12T02:15:14.073Z,74.12
2016-10-12T02:16:14.096Z,74.02
2016-10-12T02:17:14.219Z,73.74
2016-10-12T02:18:14.123Z,73.55
2016-10-12T02:19:14.143Z,73.93
2016-10-12T02:20:14.541Z,73.93
2016-10-12T02:21:14.240Z,73.93
2016-10-12T02:22:14.248Z,74.12
2016-10-12T02:23:14.258Z,73.93
2016-10-12T02:24:14.266Z,73.93
2016-10-12T02:25:14.275Z,73.83
2016-10-12T02:26:14.273Z,74.12
2016-10-12T02:27:14.282Z,73.74
2016-10-12T02:28:14.292Z,73.45
2016-10-12T02:29:14.308Z,73.74
2016-10-12T02:30:14.445Z,74.02
2016-10-12T02:31:14.443Z,73.93
2016-10-12T02:32:14.451Z,73.93
2016-10-12T02:33:14.385Z,73.93
2016-10-12T02:34:14.393Z,74.12
2016-10-12T02:35:14.508Z,74.02
2016-10-12T02:36:14.517Z,74.02
2016-10-12T02:37:14.525Z,74.02
2016-10-12T02:38:14.535Z,74.4
2016-10-12T02:39:14.544Z,74.21
2016-10-12T02:40:14.575Z,74.4
2016-10-12T02:41:14.576Z,74.31
2016-10-12T02:42:14.585Z,74.4
2016-10-12T02:43:14.593Z,74.02
2016-10-12T02:44:14.602Z,74.31
2016-10-12T02:45:14.612Z,74.5
2016-10-12T02:46:14.595Z,74.21
2016-10-12T02:47:14.611Z,74.5
2016-10-12T02:48:14.623Z,74.21
2016-10-12T02:49:14.642Z,74.12
2016-10-12T02:50:14.727Z,74.21
2016-10-12T02:51:14.689Z,74.21
2016-10-12T02:52:14.697Z,74.5
2016-10-12T02:53:14.710Z,74.31
2016-10-12T02:54:14.735Z,74.5
2016-10-12T02:55:14.740Z,74.12
2016-10-12T02:56:15.101Z,74.31
2016-10-12T02:57:14.787Z,74.12
2016-10-12T02:58:14.808Z,74.31
2016-10-12T02:59:14.810Z,74.12
2016-10-12T03:00:14.846Z,74.12
2016-10-12T03:01:14.870Z,74.21
2016-10-12T03:02:14.892Z,74.12
2016-10-12T03:03:14.974Z,74.12
2016-10-12T03:04:14.899Z,74.12
2016-10-12T03:05:14.986Z,74.21
2016-10-12T03:06:15.033Z,74.21
2016-10-12T03:07:15.029Z,74.02
2016-10-12T03:08:14.958Z,74.21
2016-10-12T03:09:15.017Z,74.12
2016-10-12T03:10:14.993Z,74.31
2016-10-12T03:11:15.007Z,74.4
2016-10-12T03:12:15.027Z,74.02
2016-10-12T03:13:15.043Z,74.5
2016-10-12T03:14:15.056Z,74.31
2016-10-12T03:15:15.092Z,74.31
2016-10-12T03:16:15.089Z,74.4
2016-10-12T03:17:15.115Z,74.6
2016-10-12T03:18:15.127Z,74.79
2016-10-12T03:19:15.143Z,73.65
2016-10-12T03:20:15.160Z,74.6
2016-10-12T03:21:15.176Z,74.6
2016-10-12T03:22:15.194Z,74.79
2016-10-12T03:23:15.211Z,74.88
2016-10-12T03:24:15.224Z,73.74
2016-10-12T03:25:15.245Z,74.79
2016-10-12T03:26:15.260Z,74.12
2016-10-12T03:27:15.276Z,74.4
2016-10-12T03:28:15.301Z,74.12
2016-10-12T03:29:15.310Z,74.02
2016-10-12T03:30:15.343Z,73.83
2016-10-12T03:31:15.341Z,74.4
2016-10-12T03:32:15.371Z,73.83
2016-10-12T03:33:15.376Z,74.02
2016-10-12T03:34:15.394Z,74.21
2016-10-12T03:35:15.411Z,74.5
2016-10-12T03:36:15.435Z,74.4
2016-10-12T03:37:15.756Z,73.83
2016-10-12T03:38:15.467Z,74.4
2016-10-12T03:39:15.786Z,74.02
2016-10-12T03:40:15.809Z,74.69
2016-10-12T03:41:15.508Z,74.12
2016-10-12T03:42:15.530Z,74.31
2016-10-12T03:43:15.543Z,74.6
2016-10-12T03:44:15.573Z,74.31
2016-10-12T03:45:15.575Z,74.4
2016-10-12T03:46:15.590Z,74.31
2016-10-12T03:47:15.614Z,74.4
2016-10-12T03:48:15.625Z,74.31
2016-10-12T03:49:15.639Z,74.4
2016-10-12T03:50:15.658Z,74.12
2016-10-12T03:51:15.674Z,74.98
2016-10-12T03:52:15.690Z,73.93
2016-10-12T03:53:15.816Z,74.69
2016-10-12T03:54:15.726Z,73.83
2016-10-12T03:55:15.761Z,74.02
2016-10-12T03:56:16.068Z,74.4
2016-10-12T03:57:15.773Z,74.12
2016-10-12T03:58:15.788Z,74.4
2016-10-12T03:59:15.809Z,74.4
2016-10-12T04:00:15.819Z,74.31
2016-10-12T04:01:15.889Z,74.79
2016-10-12T04:02:16.212Z,74.4
2016-10-12T04:03:15.873Z,74.02
2016-10-12T04:04:15.892Z,74.12
2016-10-12T04:05:15.913Z,74.4
2016-10-12T04:06:15.923Z,74.4
2016-10-12T04:07:15.957Z,74.31
2016-10-12T04:08:16.394Z,74.12
2016-10-12T04:09:15.972Z,74.02
2016-10-12T04:10:15.997Z,74.12
2016-10-12T04:11:16.005Z,74.4
2016-10-12T04:12:16.441Z,74.12
2016-10-12T04:13:16.040Z,74.21
2016-10-12T04:14:16.174Z,74.02
2016-10-12T04:15:16.183Z,74.4
2016-10-12T04:16:16.177Z,74.6
2016-10-12T04:17:16.197Z,74.6
2016-10-12T04:18:16.205Z,74.5
2016-10-12T04:19:16.374Z,73.93
2016-10-12T04:20:16.378Z,74.31
2016-10-12T04:21:16.372Z,74.37
2016-10-12T04:22:16.390Z,74.37
2016-10-12T04:23:16.399Z,74.31
2016-10-12T04:24:16.408Z,74.37
2016-10-12T04:25:16.422Z,73.8
2016-10-12T04:26:16.562Z,74.37
2016-10-12T04:27:16.458Z,74.56
2016-10-12T04:28:16.474Z,74.6
2016-10-12T04:29:16.481Z,74.12
2016-10-12T04:30:16.489Z,74.08
2016-10-12T04:31:16.531Z,74.27
2016-10-12T04:32:16.498Z,74.37
2016-10-12T04:33:16.506Z,74.69
2016-10-12T04:34:16.514Z,74.6
2016-10-12T04:35:16.524Z,74.46
2016-10-12T04:36:16.620Z,74.18
2016-10-12T04:37:16.531Z,74.21
2016-10-12T04:38:16.544Z,74.18
2016-10-12T04:39:16.513Z,74.31
2016-10-12T04:40:16.513Z,73.99
2016-10-12T04:41:16.602Z,74.69
2016-10-12T04:42:16.528Z,74.79
2016-10-12T04:43:16.537Z,74.6
2016-10-12T04:44:16.551Z,74.84
2016-10-12T04:45:16.569Z,74.84
2016-10-12T04:46:16.635Z,74.46
2016-10-12T04:47:16.603Z,74.12
2016-10-12T04:48:16.619Z,74.56
2016-10-12T04:49:16.633Z,74.84
2016-10-12T04:50:16.651Z,74.46
2016-10-12T04:51:16.668Z,74.84
2016-10-12T04:52:16.685Z,75.16
2016-10-12T04:53:16.706Z,74.79
2016-10-12T04:54:16.735Z,74.94
2016-10-12T04:55:16.734Z,74.94
2016-10-12T04:56:16.750Z,74.65
2016-10-12T04:57:16.768Z,74.94
2016-10-12T04:58:16.782Z,74.31
2016-10-12T04:59:16.820Z,74.75
2016-10-12T05:00:16.834Z,74.79
2016-10-12T05:01:16.833Z,74.98
2016-10-12T05:02:16.847Z,74.75
2016-10-12T05:03:16.865Z,74.75
2016-10-12T05:04:16.884Z,74.75
2016-10-12T05:05:16.913Z,74.56
2016-10-12T05:06:16.915Z,74.88
2016-10-12T05:07:16.932Z,74.65
2016-10-12T05:08:16.947Z,74.84
2016-10-12T05:09:16.966Z,74.75
2016-10-12T05:10:16.984Z,74.56
2016-10-12T05:11:16.997Z,74.6
2016-10-12T05:12:17.012Z,74.79
2016-10-12T05:13:17.029Z,74.84
2016-10-12T05:14:17.046Z,74.65
2016-10-12T05:15:17.064Z,74.56
2016-10-12T05:16:17.083Z,74.75
2016-10-12T05:17:17.098Z,74.75
2016-10-12T05:18:17.111Z,74.56
2016-10-12T05:19:17.134Z,74.94
2016-10-12T05:20:17.145Z,74.56
2016-10-12T05:21:17.162Z,74.79
2016-10-12T05:22:17.185Z,74.79
2016-10-12T05:23:17.196Z,74.75
2016-10-12T05:24:17.212Z,74.88
2016-10-12T05:25:17.234Z,74.98
2016-10-12T05:26:17.243Z,74.65
2016-10-12T05:27:17.264Z,74.75
2016-10-12T05:28:17.279Z,74.75
2016-10-12T05:29:17.297Z,74.79
2016-10-12T05:30:17.311Z,74.75
2016-10-12T05:31:17.324Z,74.84
2016-10-12T05:32:17.344Z,74.94
2016-10-12T05:33:17.358Z,74.79
2016-10-12T05:34:17.377Z,74.88
2016-10-12T05:35:17.392Z,74.69
2016-10-12T05:36:17.410Z,74.65
2016-10-12T05:37:17.428Z,74.88
2016-10-12T05:38:17.442Z,74.69
2016-10-12T05:39:17.458Z,74.88
2016-10-12T05:40:17.480Z,74.56
2016-10-12T05:41:17.491Z,74.94
2016-10-12T05:42:17.510Z,74.94
2016-10-12T05:43:17.526Z,75.51
2016-10-12T05:44:17.543Z,75.51
2016-10-12T05:45:17.559Z,75.42
2016-10-12T05:46:17.572Z,75.6
2016-10-12T05:47:17.588Z,75.6
2016-10-12T05:48:17.606Z,75.6
2016-10-12T05:49:17.622Z,75.42
2016-10-12T05:50:17.753Z,74.84
2016-10-12T05:51:17.656Z,74.69
2016-10-12T05:52:17.673Z,75.04
2016-10-12T05:53:17.694Z,75.23
2016-10-12T05:54:17.707Z,75.42
2016-10-12T05:55:17.723Z,75.45
2016-10-12T05:56:17.738Z,74.75
2016-10-12T05:57:17.756Z,75.64
2016-10-12T05:58:17.771Z,75.51
2016-10-12T05:59:17.787Z,75.55
2016-10-12T06:00:17.805Z,75.23
2016-10-12T06:01:17.822Z,75.64
2016-10-12T06:02:17.839Z,75.45
2016-10-12T06:03:17.855Z,75.55
2016-10-12T06:04:17.871Z,75.26
2016-10-12T06:05:17.887Z,75.26
2016-10-12T06:06:17.904Z,75.55
2016-10-12T06:07:18.033Z,75.55
2016-10-12T06:08:18.047Z,75.36
2016-10-12T06:09:17.953Z,75.36
2016-10-12T06:10:17.969Z,75.45
2016-10-12T06:11:17.986Z,75.26
2016-10-12T06:12:18.009Z,75.36
2016-10-12T06:13:18.017Z,75.36
2016-10-12T06:14:18.040Z,75.64
2016-10-12T06:15:18.053Z,75.36
2016-10-12T06:16:18.204Z,75.36
2016-10-12T06:17:18.091Z,75.26
2016-10-12T06:18:18.105Z,75.26
2016-10-12T06:19:18.118Z,75.36
2016-10-12T06:20:18.248Z,75.16
2016-10-12T06:21:18.152Z,75.26
2016-10-12T06:22:18.167Z,75.16
2016-10-12T06:23:18.185Z,75.26
2016-10-12T06:24:18.202Z,75.07
2016-10-12T06:25:18.340Z,75.45
2016-10-12T06:26:18.528Z,75.55
2016-10-12T06:27:18.253Z,75.36
2016-10-12T06:28:18.278Z,75.16
2016-10-12T06:29:18.286Z,75.16
2016-10-12T06:30:18.300Z,75.55
2016-10-12T06:31:18.322Z,75.16
2016-10-12T06:32:18.333Z,75.16
2016-10-12T06:33:18.350Z,75.55
2016-10-12T06:34:18.371Z,75.26
2016-10-12T06:35:18.385Z,75.26
2016-10-12T06:36:18.403Z,75.36
2016-10-12T06:37:18.417Z,75.16
2016-10-12T06:38:18.434Z,75.16
2016-10-12T06:39:18.450Z,75.26
2016-10-12T06:40:18.521Z,75.36
2016-10-12T06:41:18.480Z,75.26
2016-10-12T06:42:18.501Z,75.55
2016-10-12T06:43:18.514Z,75.36
2016-10-12T06:44:18.532Z,75.45
2016-10-12T06:45:18.549Z,75.26
2016-10-12T06:46:18.565Z,75.16
2016-10-12T06:47:18.584Z,75.36
2016-10-12T06:48:18.597Z,75.36
2016-10-12T06:49:18.613Z,75.36
2016-10-12T06:50:18.633Z,75.36
2016-10-12T06:51:18.648Z,75.45
2016-10-12T06:52:18.664Z,75.74
2016-10-12T06:53:18.681Z,75.45
2016-10-12T06:54:18.699Z,75.16
2016-10-12T06:55:18.712Z,75.26
2016-10-12T06:56:18.731Z,75.45
2016-10-12T06:57:18.747Z,75.36
2016-10-12T06:58:18.766Z,75.93
2016-10-12T06:59:18.780Z,75.84
2016-10-12T07:00:18.797Z,75.36
2016-10-12T07:01:18.813Z,75.93
2016-10-12T07:02:18.833Z,75.26
2016-10-12T07:03:18.854Z,75.45
2016-10-12T07:04:18.864Z,75.26
2016-10-12T07:05:18.880Z,75.74
2016-10-12T07:06:18.900Z,75.16
2016-10-12T07:07:18.914Z,75.74
2016-10-12T07:08:18.930Z,75.45
2016-10-12T07:09:18.947Z,76.03
2016-10-12T07:10:18.966Z,75.64
2016-10-12T07:11:18.980Z,75.93
2016-10-12T07:12:18.999Z,75.74
2016-10-12T07:13:19.013Z,75.64
2016-10-12T07:14:19.030Z,75.74
2016-10-12T07:15:19.045Z,75.45
2016-10-12T07:16:19.062Z,75.93
2016-10-12T07:17:19.080Z,75.74
2016-10-12T07:18:19.099Z,75.84
2016-10-12T07:19:19.111Z,75.74
2016-10-12T07:20:19.131Z,76.03
2016-10-12T07:21:19.147Z,76.4
2016-10-12T07:22:19.164Z,75.45
2016-10-12T07:23:19.178Z,75.84
2016-10-12T07:24:19.197Z,76.4
2016-10-12T07:25:19.221Z,76.31
2016-10-12T07:26:19.229Z,76.03
2016-10-12T07:27:19.359Z,75.93
2016-10-12T07:28:19.376Z,76.31
2016-10-12T07:29:19.325Z,76.12
2016-10-12T07:30:19.325Z,76.5
2016-10-12T07:31:19.416Z,76.59
2016-10-12T07:32:19.340Z,76.88
2016-10-12T07:33:19.350Z,76.98
2016-10-12T07:34:19.365Z,76.98
2016-10-12T07:35:19.381Z,76.98
2016-10-12T07:36:19.515Z,76.69
2016-10-12T07:37:19.417Z,77.07
2016-10-12T07:38:19.866Z,76.88
2016-10-12T07:39:19.565Z,76.69
2016-10-12T07:40:19.463Z,77.36
2016-10-12T07:41:19.483Z,77.36
2016-10-12T07:42:19.497Z,77.17
2016-10-12T07:43:19.515Z,77.17
2016-10-12T07:44:19.532Z,77.26
2016-10-12T07:45:19.548Z,76.98
2016-10-12T07:46:19.568Z,77.45
2016-10-12T07:47:19.586Z,77.36
2016-10-12T07:48:19.597Z,77.26
2016-10-12T07:49:19.615Z,77.17
2016-10-12T07:50:19.629Z,76.98
2016-10-12T07:51:19.649Z,77.07
2016-10-12T07:52:19.664Z,77.07
2016-10-12T07:53:19.708Z,77.4
2016-10-12T07:54:19.944Z,76.82
2016-10-12T07:55:19.717Z,76.73
2016-10-12T07:56:19.730Z,76.82
2016-10-12T07:57:19.748Z,76.82
2016-10-12T07:58:19.764Z,76.92
2016-10-12T07:59:19.782Z,77.2
2016-10-12T08:00:19.802Z,77.01
2016-10-12T08:01:19.815Z,76.92
2016-10-12T08:02:19.837Z,76.82
2016-10-12T08:03:19.854Z,77.3
2016-10-12T08:04:19.867Z,77.4
2016-10-12T08:05:19.885Z,76.82
2016-10-12T08:06:19.900Z,76.73
2016-10-12T08:07:19.917Z,76.82
2016-10-12T08:08:19.933Z,77.49
2016-10-12T08:09:19.951Z,77.3
2016-10-12T08:10:19.968Z,76.92
2016-10-12T08:11:19.984Z,76.82
2016-10-12T08:12:20.002Z,76.44
2016-10-12T08:13:20.020Z,77.01
2016-10-12T08:14:20.033Z,76.64
2016-10-12T08:15:20.055Z,76.54
2016-10-12T08:16:20.069Z,77.11
2016-10-12T08:17:20.087Z,77.11
2016-10-12T08:18:20.102Z,77.01
2016-10-12T08:19:20.122Z,76.82
2016-10-12T08:20:20.135Z,77.11
2016-10-12T08:21:20.154Z,76.54
2016-10-12T08:22:20.168Z,76.64
2016-10-12T08:23:20.196Z,76.64
2016-10-12T08:24:20.202Z,76.82
2016-10-12T08:25:20.220Z,76.54
2016-10-12T08:26:20.238Z,76.64
2016-10-12T08:27:20.254Z,76.06
2016-10-12T08:28:20.273Z,76.25
2016-10-12T08:29:20.290Z,75.87
2016-10-12T08:30:20.304Z,76.73
2016-10-12T08:31:20.326Z,76.73
2016-10-12T08:32:20.339Z,76.44
2016-10-12T08:33:20.359Z,76.82
2016-10-12T08:34:20.373Z,75.87
2016-10-12T08:35:20.394Z,76.54
2016-10-12T08:36:20.407Z,76.35
2016-10-12T08:37:20.425Z,77.01
2016-10-12T08:38:20.440Z,76.35
2016-10-12T08:39:20.459Z,75.78
2016-10-12T08:40:20.478Z,76.25
2016-10-12T08:41:20.492Z,76.16
2016-10-12T08:42:20.511Z,76.73
2016-10-12T08:43:20.525Z,76.64
2016-10-12T08:44:20.544Z,76.25
2016-10-12T08:45:20.561Z,76.82
2016-10-12T08:46:20.577Z,76.06
2016-10-12T08:47:20.595Z,76.44
2016-10-12T08:48:20.611Z,76.25
2016-10-12T08:49:20.627Z,76.25
2016-10-12T08:50:20.644Z,76.29
2016-10-12T08:51:20.662Z,76.25
2016-10-12T08:52:20.679Z,76.48
2016-10-12T08:53:20.701Z,75.81
2016-10-12T08:54:20.715Z,76.1
2016-10-12T08:55:20.733Z,76.82
2016-10-12T08:56:20.749Z,77.25
2016-10-12T08:57:20.771Z,76.06
2016-10-12T08:58:20.863Z,76.57
2016-10-12T08:59:20.801Z,76.29
2016-10-12T09:00:20.818Z,76.1
2016-10-12T09:01:20.835Z,76.29
2016-10-12T09:02:20.853Z,76.39
2016-10-12T09:03:20.869Z,76.57
2016-10-12T09:04:20.885Z,76.29
2016-10-12T09:05:20.905Z,76.2
2016-10-12T09:06:20.922Z,76.48
2016-10-12T09:07:20.937Z,76.29
2016-10-12T09:08:20.956Z,76.1
2016-10-12T09:09:20.972Z,76.48
2016-10-12T09:10:20.990Z,75.91
2016-10-12T09:11:21.006Z,76.39
2016-10-12T09:12:21.027Z,75.81
2016-10-12T09:13:21.040Z,75.24
2016-10-12T09:14:21.058Z,75.43
2016-10-12T09:15:21.077Z,75.72
2016-10-12T09:16:21.097Z,75.62
2016-10-12T09:17:21.112Z,75.43
2016-10-12T09:18:21.130Z,75.62
2016-10-12T09:19:21.146Z,75.62
2016-10-12T09:20:21.170Z,75.72
2016-10-12T09:21:21.182Z,75.05
2016-10-12T09:22:21.198Z,75.15
2016-10-12T09:23:21.217Z,75.15
2016-10-12T09:24:21.235Z,75.43
2016-10-12T09:25:21.249Z,75.72
2016-10-12T09:26:21.269Z,75.24
2016-10-12T09:27:21.285Z,75.53
2016-10-12T09:28:21.304Z,75.81
2016-10-12T09:29:21.321Z,74.71
2016-10-12T09:30:21.337Z,74.8
2016-10-12T09:31:21.356Z,75.09
2016-10-12T09:32:21.370Z,75.28
2016-10-12T09:33:21.391Z,74.9
2016-10-12T09:34:21.409Z,74.61
2016-10-12T09:35:21.424Z,73.85
2016-10-12T09:36:21.444Z,74.13
2016-10-12T09:37:21.458Z,74.32
2016-10-12T09:38:21.480Z,74.71
2016-10-12T09:39:21.495Z,74.23
2016-10-12T09:40:21.513Z,74.61
2016-10-12T09:41:21.531Z,73.94
2016-10-12T09:42:21.548Z,74.71
2016-10-12T09:43:21.564Z,74.04
2016-10-12T09:44:21.584Z,74.13
2016-10-12T09:45:21.605Z,74.13
2016-10-12T09:46:21.620Z,74.23
2016-10-12T09:47:21.634Z,74.04
2016-10-12T09:48:21.652Z,73.75
2016-10-12T09:49:21.671Z,73.85
2016-10-12T09:50:21.694Z,73.85
2016-10-12T09:51:21.705Z,74.04
2016-10-12T09:52:21.725Z,73.75
2016-10-12T09:53:21.745Z,73.66
2016-10-12T09:54:21.760Z,73.85
2016-10-12T09:55:21.779Z,73.56
2016-10-12T09:56:21.794Z,73.94
2016-10-12T09:57:21.815Z,73.85
2016-10-12T09:58:21.830Z,73.85
2016-10-12T09:59:21.847Z,73.85
2016-10-12T10:00:21.867Z,74.23
2016-10-12T10:01:21.886Z,74.13
2016-10-12T10:02:21.900Z,73.75
2016-10-12T10:03:21.921Z,73.75
2016-10-12T10:04:21.936Z,73.66
2016-10-12T10:05:21.956Z,73.94
2016-10-12T10:06:21.969Z,73.85
2016-10-12T10:07:21.991Z,74.23
2016-10-12T10:08:22.007Z,73.28
2016-10-12T10:09:22.340Z,73.75
2016-10-12T10:10:22.041Z,73.85
2016-10-12T10:11:22.061Z,73.47
2016-10-12T10:12:22.079Z,73.66
2016-10-12T10:13:22.095Z,74.04
2016-10-12T10:14:22.114Z,73.85
2016-10-12T10:15:22.131Z,73.94
2016-10-12T10:16:22.146Z,74.04
2016-10-12T10:17:22.165Z,73.66
2016-10-12T10:18:22.185Z,73.56
2016-10-12T10:19:22.208Z,73.75
2016-10-12T10:20:22.221Z,73.66
2016-10-12T10:21:22.257Z,73.08
2016-10-12T10:22:22.256Z,74.13
2016-10-12T10:23:22.274Z,73.66
2016-10-12T10:24:22.290Z,73.94
2016-10-12T10:25:22.316Z,73.66
2016-10-12T10:26:22.337Z,73.56
2016-10-12T10:27:22.344Z,73.56
2016-10-12T10:28:22.363Z,73.75
2016-10-12T10:29:22.380Z,73.18
2016-10-12T10:30:22.398Z,73.66
2016-10-12T10:31:22.420Z,73.47
2016-10-12T10:32:22.432Z,74.04
2016-10-12T10:33:22.454Z,74.13
2016-10-12T10:34:22.469Z,73.85
2016-10-12T10:35:22.498Z,74.13
2016-10-12T10:36:22.504Z,73.37
2016-10-12T10:37:22.835Z,73.75
2016-10-12T10:38:22.538Z,73.66
2016-10-12T10:39:22.558Z,73.08
2016-10-12T10:40:22.577Z,73.47
2016-10-12T10:41:22.592Z,73.47
2016-10-12T10:42:22.610Z,73.66
2016-10-12T10:43:22.627Z,73.56
2016-10-12T10:44:22.650Z,73.75
2016-10-12T10:45:22.663Z,73.66
2016-10-12T10:46:22.689Z,74.13
2016-10-12T10:47:22.705Z,73.56
2016-10-12T10:48:22.721Z,74.04
2016-10-12T10:49:22.735Z,73.85
2016-10-12T10:50:22.753Z,73.94
2016-10-12T10:51:22.775Z,73.85
2016-10-12T10:52:22.791Z,73.66
2016-10-12T10:53:22.807Z,73.66
2016-10-12T10:54:22.824Z,73.94
2016-10-12T10:55:22.842Z,73.66
2016-10-12T10:56:22.859Z,73.66
2016-10-12T10:57:22.884Z,74.23
2016-10-12T10:58:22.896Z,74.04
2016-10-12T10:59:22.914Z,74.23
2016-10-12T11:00:22.929Z,73.94
2016-10-12T11:01:22.946Z,73.85
2016-10-12T11:02:22.967Z,74.13
2016-10-12T11:03:22.991Z,73.94
2016-10-12T11:04:23.015Z,74.13
2016-10-12T11:05:23.019Z,73.75
2016-10-12T11:06:23.035Z,73.66
2016-10-12T11:07:23.064Z,73.66
2016-10-12T11:08:23.072Z,73.75
2016-10-12T11:09:23.090Z,73.85
2016-10-12T11:10:23.111Z,73.62
2016-10-12T11:11:23.125Z,73.75
2016-10-12T11:12:23.144Z,73.81
2016-10-12T11:13:23.163Z,74.01
2016-10-12T11:14:23.187Z,73.66
2016-10-12T11:15:23.198Z,73.85
2016-10-12T11:16:23.214Z,74.1
2016-10-12T11:17:23.232Z,73.81
2016-10-12T11:18:23.249Z,73.66
2016-10-12T11:19:23.268Z,73.85
2016-10-12T11:20:23.284Z,73.66
2016-10-12T11:21:23.306Z,73.85
2016-10-12T11:22:23.635Z,73.94
2016-10-12T11:23:23.337Z,73.47
2016-10-12T11:24:23.355Z,74.13
2016-10-12T11:25:23.375Z,73.52
2016-10-12T11:26:23.389Z,74.04
2016-10-12T11:27:23.409Z,74.23
2016-10-12T11:28:23.428Z,73.66
2016-10-12T11:29:23.444Z,73.85
2016-10-12T11:30:23.462Z,73.56
2016-10-12T11:31:23.478Z,73.85
2016-10-12T11:32:23.518Z,73.94
2016-10-12T11:33:23.520Z,74.04
2016-10-12T11:34:23.534Z,73.66
2016-10-12T11:35:23.554Z,73.47
2016-10-12T11:36:23.577Z,73.56
2016-10-12T11:37:23.586Z,73.66
2016-10-12T11:38:23.605Z,73.75
2016-10-12T11:39:23.623Z,74.04
2016-10-12T11:40:23.641Z,74.42
2016-10-12T11:41:23.654Z,74.04
2016-10-12T11:42:23.678Z,73.85
2016-10-12T11:43:23.693Z,73.85
2016-10-12T11:44:23.713Z,73.28
2016-10-12T11:45:23.728Z,73.85
2016-10-12T11:46:23.747Z,73.85
2016-10-12T11:47:23.768Z,73.75
2016-10-12T11:48:23.786Z,74.13
2016-10-12T11:49:23.800Z,73.85
2016-10-12T11:50:24.132Z,73.28
2016-10-12T11:51:23.837Z,73.75
2016-10-12T11:52:23.855Z,73.94
2016-10-12T11:53:23.870Z,73.18
2016-10-12T11:54:23.890Z,73.28
2016-10-12T11:55:23.910Z,73.08
2016-10-12T11:56:23.922Z,73.56
2016-10-12T11:57:23.944Z,73.47
2016-10-12T11:58:23.960Z,73.37
2016-10-12T11:59:23.980Z,73.69
2016-10-12T12:00:23.997Z,73.41
2016-10-12T12:01:24.013Z,73.03
2016-10-12T12:02:24.033Z,72.93
2016-10-12T12:03:24.048Z,73.22
2016-10-12T12:04:24.068Z,73.22
2016-10-12T12:05:24.086Z,73.12
2016-10-12T12:06:24.106Z,72.83
2016-10-12T12:07:24.121Z,73.03
2016-10-12T12:08:24.138Z,73.12
2016-10-12T12:09:24.156Z,73.22
2016-10-12T12:10:24.181Z,73.32
2016-10-12T12:11:24.204Z,73.32
2016-10-12T12:12:24.210Z,72.83
2016-10-12T12:13:24.229Z,73.12
2016-10-12T12:14:24.245Z,73.22
2016-10-12T12:15:24.269Z,72.64
2016-10-12T12:16:24.336Z,72.55
2016-10-12T12:17:24.302Z,72.83
2016-10-12T12:18:24.320Z,72.83
2016-10-12T12:19:24.338Z,72.64
2016-10-12T12:20:24.356Z,72.83
2016-10-12T12:21:24.373Z,73.12
2016-10-12T12:22:24.392Z,72.64
2016-10-12T12:23:24.411Z,73.03
2016-10-12T12:24:24.430Z,72.64
2016-10-12T12:25:24.453Z,73.03
2016-10-12T12:26:24.465Z,72.45
2016-10-12T12:27:24.490Z,72.55
2016-10-12T12:28:24.503Z,72.74
2016-10-12T12:29:24.525Z,72.64
2016-10-12T12:30:24.541Z,72.74
2016-10-12T12:31:24.554Z,72.83
2016-10-12T12:32:24.573Z,72.93
2016-10-12T12:33:24.594Z,73.22
2016-10-12T12:34:24.612Z,73.22
2016-10-12T12:35:24.626Z,73.12
2016-10-12T12:36:24.646Z,73.22
2016-10-12T12:37:24.667Z,73.12
2016-10-12T12:38:24.682Z,72.83
2016-10-12T12:39:24.706Z,73.22
2016-10-12T12:40:24.718Z,73.03
2016-10-12T12:41:24.745Z,73.12
2016-10-12T12:42:24.753Z,73.03
2016-10-12T12:43:24.769Z,73.12
2016-10-12T12:44:24.790Z,73.03
2016-10-12T12:45:24.813Z,72.93
2016-10-12T12:46:24.825Z,73.22
2016-10-12T12:47:24.841Z,72.83
2016-10-12T12:48:24.863Z,72.83
2016-10-12T12:49:24.881Z,73.12
2016-10-12T12:50:24.897Z,73.03
2016-10-12T12:51:24.917Z,73.03
2016-10-12T12:52:24.939Z,73.03
2016-10-12T12:53:24.951Z,73.12
2016-10-12T12:54:24.971Z,73.03